Time;durP1;ratioP1;P1;durP2;ratioP2;P2;SDS_P1;SDS_P2;PMS_P1;PMS_P2;Temp;Humidity;BMP_temperature;BMP_pressure;BME280_temperature;BME280_humidity;BME280_pressure;Samples;Min_cycle;Max_cycle;Signal;HPM_P1;HPM_P2
2023/04/19 00:00:09;;;;;;;10.02;6.60;;;10.70;99.90;;;;;;6186391;23;20451;-91
2023/04/19 00:02:34;;;;;;;9.30;7.10;;;10.70;99.90;;;;;;6187987;23;20035;-92
2023/04/19 00:05:01;;;;;;;9.27;6.45;;;10.70;99.90;;;;;;6186685;23;20451;-91
2023/04/19 00:07:27;;;;;;;11.80;7.20;;;10.60;99.90;;;;;;6187695;23;20013;-92
2023/04/19 00:09:52;;;;;;;9.82;7.07;;;10.60;99.90;;;;;;6185776;23;20021;-92
2023/04/19 00:12:18;;;;;;;11.80;6.78;;;10.60;99.90;;;;;;6186182;23;20037;-91
2023/04/19 00:14:43;;;;;;;12.05;7.22;;;10.60;99.90;;;;;;6185318;23;20017;-91
2023/04/19 00:17:10;;;;;;;10.07;6.75;;;10.50;99.90;;;;;;6188117;23;20341;-92
2023/04/19 00:19:36;;;;;;;10.07;7.07;;;10.50;99.90;;;;;;6185730;23;20051;-91
2023/04/19 00:22:02;;;;;;;11.32;7.15;;;10.50;99.90;;;;;;6185950;23;20025;-92
2023/04/19 00:24:28;;;;;;;10.98;6.50;;;10.40;99.90;;;;;;6185834;23;20403;-92
2023/04/19 00:26:54;;;;;;;10.52;6.50;;;10.40;99.90;;;;;;6186154;23;20017;-92
2023/04/19 00:29:19;;;;;;;13.18;6.28;;;10.40;99.90;;;;;;6187672;23;20040;-92
2023/04/19 00:31:45;;;;;;;9.23;6.50;;;10.30;99.90;;;;;;6185835;23;20025;-93
2023/04/19 00:34:11;;;;;;;9.23;6.85;;;10.30;99.90;;;;;;6188037;23;20085;-93
2023/04/19 00:36:36;;;;;;;10.05;7.10;;;10.30;99.90;;;;;;6187328;23;20448;-92
2023/04/19 00:39:02;;;;;;;10.18;7.15;;;10.30;99.90;;;;;;6187906;23;20059;-92
2023/04/19 00:41:28;;;;;;;9.80;6.47;;;10.20;99.90;;;;;;6187548;23;20023;-91
2023/04/19 00:43:54;;;;;;;10.45;7.25;;;10.20;99.90;;;;;;6186799;23;20080;-91
2023/04/19 00:46:20;;;;;;;9.02;6.45;;;10.10;99.90;;;;;;6187651;23;20013;-91
2023/04/19 00:48:47;;;;;;;10.32;7.00;;;10.20;99.90;;;;;;6186012;23;20099;-93
2023/04/19 00:51:12;;;;;;;9.35;7.13;;;10.10;99.90;;;;;;6187182;23;20013;-91
2023/04/19 00:53:40;;;;;;;9.70;6.78;;;10.10;99.90;;;;;;6187256;23;20092;-91
2023/04/19 00:56:05;;;;;;;11.07;7.30;;;10.00;99.90;;;;;;6186732;23;20096;-92
2023/04/19 00:58:31;;;;;;;9.10;6.22;;;10.00;99.90;;;;;;6185212;23;20056;-91
2023/04/19 01:00:58;;;;;;;8.60;6.18;;;10.10;99.90;;;;;;6186944;23;20341;-93
2023/04/19 01:03:26;;;;;;;10.40;6.18;;;10.10;99.90;;;;;;6187301;23;20013;-92
2023/04/19 01:05:51;;;;;;;10.50;6.40;;;10.10;99.90;;;;;;6186384;23;20450;-91
2023/04/19 01:08:17;;;;;;;9.98;6.97;;;10.00;99.90;;;;;;6184842;23;20019;-90
2023/04/19 01:10:43;;;;;;;11.52;6.50;;;10.00;99.90;;;;;;6186449;23;20019;-91
2023/04/19 01:13:08;;;;;;;9.02;6.80;;;10.00;99.90;;;;;;6185083;23;20365;-92
2023/04/19 01:15:35;;;;;;;13.95;7.00;;;10.00;99.90;;;;;;6184988;23;20017;-93
2023/04/19 01:18:01;;;;;;;13.25;7.22;;;10.00;99.90;;;;;;6185494;23;20075;-91
2023/04/19 01:20:27;;;;;;;9.38;6.80;;;10.00;99.90;;;;;;6186802;23;20017;-91
2023/04/19 01:22:52;;;;;;;10.43;6.93;;;9.90;99.90;;;;;;6185587;23;20020;-92
2023/04/19 01:25:18;;;;;;;11.20;6.90;;;9.90;99.90;;;;;;6184723;23;20025;-91
2023/04/19 01:27:44;;;;;;;9.52;6.82;;;9.90;99.90;;;;;;6186630;23;20020;-91
2023/04/19 01:30:10;;;;;;;10.90;6.80;;;9.90;99.90;;;;;;6185655;23;20016;-92
2023/04/19 01:32:36;;;;;;;10.60;6.35;;;9.90;99.90;;;;;;6186534;23;20064;-92
2023/04/19 01:35:01;;;;;;;9.68;6.80;;;9.80;99.90;;;;;;6185788;23;20009;-92
2023/04/19 01:37:27;;;;;;;11.07;7.38;;;9.90;99.90;;;;;;6186172;23;20064;-93
2023/04/19 01:39:52;;;;;;;10.50;6.75;;;9.80;99.90;;;;;;6186996;23;20315;-92
2023/04/19 01:42:18;;;;;;;10.70;7.85;;;9.80;99.90;;;;;;6185176;23;20017;-91
2023/04/19 01:44:44;;;;;;;10.02;6.80;;;9.70;99.90;;;;;;6185749;23;20524;-91
2023/04/19 01:47:09;;;;;;;11.40;6.93;;;9.70;99.90;;;;;;6184823;23;20024;-92
2023/04/19 01:49:35;;;;;;;10.45;7.13;;;9.70;99.90;;;;;;6185672;23;20017;-93
2023/04/19 01:52:01;;;;;;;10.40;6.90;;;9.60;99.90;;;;;;6185684;23;20017;-92
2023/04/19 01:54:26;;;;;;;10.55;7.25;;;9.60;99.90;;;;;;6187161;23;20028;-92
2023/04/19 01:56:52;;;;;;;11.25;7.45;;;9.60;99.90;;;;;;6188900;23;20052;-91
2023/04/19 01:59:18;;;;;;;13.18;7.80;;;9.50;99.90;;;;;;6187245;23;20393;-92
2023/04/19 02:01:43;;;;;;;14.02;8.30;;;9.50;99.90;;;;;;6187017;23;20075;-91
2023/04/19 02:04:09;;;;;;;12.27;8.52;;;9.50;99.90;;;;;;6188934;23;20311;-92
2023/04/19 02:06:36;;;;;;;11.48;8.00;;;9.40;99.90;;;;;;6187671;23;20019;-91
2023/04/19 02:09:02;;;;;;;13.23;8.95;;;9.40;99.90;;;;;;6188852;23;20014;-91
2023/04/19 02:11:27;;;;;;;12.82;8.52;;;9.40;99.90;;;;;;6187634;23;20013;-92
2023/04/19 02:13:53;;;;;;;12.70;8.65;;;9.40;99.90;;;;;;6186217;23;20017;-90
2023/04/19 02:16:18;;;;;;;12.00;8.13;;;9.40;99.90;;;;;;6187437;23;20511;-92
2023/04/19 02:18:45;;;;;;;11.23;8.20;;;9.30;99.90;;;;;;6187398;23;20013;-93
2023/04/19 02:21:11;;;;;;;12.20;8.25;;;9.30;99.90;;;;;;6188818;23;20020;-91
2023/04/19 02:23:37;;;;;;;12.63;8.82;;;9.30;99.90;;;;;;6187860;23;20017;-92
2023/04/19 02:26:02;;;;;;;12.13;8.20;;;9.20;99.90;;;;;;6187802;23;20031;-92
2023/04/19 02:28:29;;;;;;;13.23;8.60;;;9.20;99.90;;;;;;6189143;23;20072;-92
2023/04/19 02:30:55;;;;;;;14.05;9.05;;;9.20;99.90;;;;;;6189088;23;20092;-93
2023/04/19 02:33:22;;;;;;;13.05;8.45;;;9.10;99.90;;;;;;6189496;23;20021;-92
2023/04/19 02:35:47;;;;;;;13.70;9.05;;;9.10;99.90;;;;;;6188204;23;20012;-91
2023/04/19 02:38:13;;;;;;;11.57;8.50;;;9.10;99.90;;;;;;6187153;23;20450;-91
2023/04/19 02:40:38;;;;;;;11.52;8.57;;;9.10;99.90;;;;;;6188516;23;20056;-92
2023/04/19 02:43:04;;;;;;;12.57;8.85;;;9.10;99.90;;;;;;6188511;23;20013;-91
2023/04/19 02:45:30;;;;;;;14.05;8.70;;;9.00;99.90;;;;;;6188578;23;20013;-91
2023/04/19 02:47:56;;;;;;;16.17;9.55;;;9.00;99.90;;;;;;6186961;23;20350;-92
2023/04/19 02:50:21;;;;;;;12.95;9.32;;;9.00;99.90;;;;;;6188245;23;20017;-92
2023/04/19 02:52:47;;;;;;;12.88;8.68;;;9.00;99.90;;;;;;6187149;23;20013;-91
2023/04/19 02:55:12;;;;;;;12.50;9.15;;;9.00;99.90;;;;;;6188651;23;20020;-91
2023/04/19 02:57:38;;;;;;;14.23;9.75;;;8.90;99.90;;;;;;6187740;23;20013;-91
2023/04/19 03:00:05;;;;;;;14.65;9.75;;;8.90;99.90;;;;;;6186700;23;20014;-91
2023/04/19 03:02:30;;;;;;;14.35;9.48;;;8.90;99.90;;;;;;6187949;23;20052;-91
2023/04/19 03:04:56;;;;;;;13.57;9.05;;;8.90;99.90;;;;;;6186604;23;20017;-90
2023/04/19 03:07:22;;;;;;;12.70;9.30;;;8.80;99.90;;;;;;6188310;23;20068;-91
2023/04/19 03:09:48;;;;;;;12.90;8.70;;;8.80;99.90;;;;;;6186417;23;20021;-92
2023/04/19 03:12:13;;;;;;;16.33;9.55;;;8.80;99.90;;;;;;6188186;23;20311;-91
2023/04/19 03:14:39;;;;;;;14.45;9.55;;;8.80;99.90;;;;;;6186629;23;20398;-90
2023/04/19 03:17:05;;;;;;;15.05;9.10;;;8.80;99.90;;;;;;6186795;23;20013;-92
2023/04/19 03:19:30;;;;;;;13.02;9.10;;;8.80;99.90;;;;;;6188158;23;20013;-92
2023/04/19 03:21:56;;;;;;;13.80;9.40;;;8.70;99.90;;;;;;6188103;23;20021;-92
2023/04/19 03:24:29;;;;;;;13.65;9.20;;;8.70;99.90;;;;;;6187437;23;20012;-91
2023/04/19 03:26:55;;;;;;;13.23;9.32;;;8.70;99.90;;;;;;6188558;23;20027;-91
2023/04/19 03:29:21;;;;;;;17.02;9.30;;;8.70;99.90;;;;;;6186501;23;20016;-92
2023/04/19 03:31:46;;;;;;;13.55;8.70;;;8.70;99.90;;;;;;6185720;23;20060;-91
2023/04/19 03:34:12;;;;;;;14.52;9.25;;;8.70;99.90;;;;;;6186856;23;20013;-91
2023/04/19 03:36:39;;;;;;;13.18;9.38;;;8.70;99.90;;;;;;6187907;23;20084;-91
2023/04/19 03:39:05;;;;;;;13.38;8.93;;;8.70;99.90;;;;;;6186361;23;20017;-91
2023/04/19 03:41:30;;;;;;;12.82;9.25;;;8.70;99.90;;;;;;6188287;23;20020;-93
2023/04/19 03:43:57;;;;;;;12.38;9.20;;;8.70;99.90;;;;;;6185712;23;20048;-93
2023/04/19 03:46:23;;;;;;;12.18;8.40;;;8.70;99.90;;;;;;6187597;23;20017;-91
2023/04/19 03:48:49;;;;;;;13.95;9.18;;;8.70;99.90;;;;;;6186057;23;20017;-92
2023/04/19 03:51:15;;;;;;;12.30;8.82;;;8.60;99.90;;;;;;6186728;23;20019;-92
2023/04/19 03:53:41;;;;;;;12.48;8.80;;;8.60;99.90;;;;;;6186130;23;20017;-91
2023/04/19 03:56:07;;;;;;;12.13;8.18;;;8.60;99.90;;;;;;6188207;23;20015;-93
2023/04/19 03:58:32;;;;;;;13.80;8.60;;;8.60;99.90;;;;;;6187742;23;20025;-91
2023/04/19 04:01:00;;;;;;;13.38;8.48;;;8.50;99.90;;;;;;6186031;23;20342;-92
2023/04/19 04:03:26;;;;;;;12.35;7.72;;;8.50;99.90;;;;;;6188095;23;20063;-92
2023/04/19 04:05:51;;;;;;;11.27;8.32;;;8.50;99.90;;;;;;6185868;23;20270;-92
2023/04/19 04:08:17;;;;;;;13.23;7.80;;;8.40;99.90;;;;;;6187722;23;20037;-92
2023/04/19 04:10:43;;;;;;;13.48;8.18;;;8.40;99.90;;;;;;6188029;23;20312;-92
2023/04/19 04:13:09;;;;;;;11.77;8.15;;;8.40;99.90;;;;;;6186378;23;20009;-92
2023/04/19 04:15:34;;;;;;;10.95;8.27;;;8.30;99.90;;;;;;6187503;23;20040;-93
2023/04/19 04:18:00;;;;;;;13.18;8.68;;;8.30;99.90;;;;;;6187947;23;20024;-92
2023/04/19 04:20:25;;;;;;;10.75;6.70;;;8.30;99.90;;;;;;6186281;23;20031;-90
2023/04/19 04:22:51;;;;;;;11.77;7.80;;;8.30;99.90;;;;;;6187386;23;20017;-92
2023/04/19 04:25:17;;;;;;;11.30;7.05;;;8.20;99.90;;;;;;6186280;23;20024;-92
2023/04/19 04:27:43;;;;;;;11.13;7.68;;;8.20;99.90;;;;;;6187381;23;20017;-92
2023/04/19 04:30:10;;;;;;;11.07;7.60;;;8.10;99.90;;;;;;6185936;23;20044;-92
2023/04/19 04:32:39;;;;;;;11.63;7.95;;;8.10;99.90;;;;;;6187346;23;20441;-91
2023/04/19 04:35:06;;;;;;;12.00;7.43;;;8.10;99.90;;;;;;6185520;23;20024;-91
2023/04/19 04:37:35;;;;;;;10.85;7.70;;;8.10;99.90;;;;;;6187425;23;20043;-92
2023/04/19 04:40:06;;;;;;;11.20;7.38;;;8.10;99.90;;;;;;6185851;23;20021;-93
2023/04/19 04:42:32;;;;;;;11.05;7.65;;;8.10;99.90;;;;;;6187590;23;20075;-93
2023/04/19 04:45:00;;;;;;;12.15;7.38;;;8.00;99.90;;;;;;6185673;23;20009;-90
2023/04/19 04:47:31;;;;;;;12.73;7.10;;;8.00;99.90;;;;;;6185275;23;20579;-89
2023/04/19 04:49:57;;;;;;;11.27;7.45;;;8.00;99.90;;;;;;6183274;23;20029;-86
2023/04/19 04:52:22;;;;;;;10.75;7.25;;;7.90;99.90;;;;;;6183980;23;20013;-87
2023/04/19 04:54:48;;;;;;;9.02;6.47;;;7.90;99.90;;;;;;6186011;23;20028;-91
2023/04/19 04:57:14;;;;;;;11.68;7.20;;;7.90;99.90;;;;;;6184055;23;20442;-90
2023/04/19 04:59:40;;;;;;;9.55;6.82;;;7.90;99.90;;;;;;6186346;23;20025;-91
2023/04/19 05:02:05;;;;;;;11.07;6.95;;;7.80;99.90;;;;;;6186933;23;20040;-89
2023/04/19 05:04:31;;;;;;;11.35;7.32;;;7.80;99.90;;;;;;6182746;23;20063;-88
2023/04/19 05:06:56;;;;;;;9.85;6.22;;;7.90;99.90;;;;;;6182867;23;20112;-89
2023/04/19 05:09:22;;;;;;;12.35;7.07;;;7.80;99.90;;;;;;6183237;23;20019;-90
2023/04/19 05:11:48;;;;;;;10.60;6.70;;;7.70;99.90;;;;;;6182555;23;20438;-88
2023/04/19 05:14:13;;;;;;;10.23;7.03;;;7.80;99.90;;;;;;6183799;23;20021;-90
2023/04/19 05:16:39;;;;;;;10.65;7.30;;;7.70;99.90;;;;;;6184043;23;20511;-90
2023/04/19 05:19:04;;;;;;;10.15;6.57;;;7.70;99.90;;;;;;6185747;23;20024;-88
2023/04/19 05:21:33;;;;;;;9.35;6.00;;;7.70;99.90;;;;;;6184434;23;20450;-89
2023/04/19 05:23:58;;;;;;;10.07;6.07;;;7.70;99.90;;;;;;6186287;23;20009;-90
2023/04/19 05:26:24;;;;;;;9.68;6.38;;;7.70;99.90;;;;;;6185092;23;20013;-90
2023/04/19 05:28:49;;;;;;;10.32;6.10;;;7.70;99.90;;;;;;6184949;23;20024;-89
2023/04/19 05:31:15;;;;;;;8.40;5.80;;;7.70;99.90;;;;;;6183386;23;20461;-89
2023/04/19 05:33:41;;;;;;;9.93;6.30;;;7.70;99.90;;;;;;6183879;23;20059;-89
2023/04/19 05:36:06;;;;;;;10.02;6.47;;;7.60;99.90;;;;;;6184652;23;20017;-89
2023/04/19 05:38:32;;;;;;;9.95;6.20;;;7.60;99.90;;;;;;6186046;23;20423;-90
2023/04/19 05:40:58;;;;;;;11.07;6.43;;;7.60;99.90;;;;;;6183786;23;20025;-90
2023/04/19 05:43:24;;;;;;;9.88;6.25;;;7.60;99.90;;;;;;6184122;23;20013;-90
2023/04/19 05:45:49;;;;;;;9.45;6.47;;;7.60;99.90;;;;;;6182466;23;20491;-89
2023/04/19 05:48:15;;;;;;;10.73;5.82;;;7.60;99.90;;;;;;6186278;23;20454;-90
2023/04/19 05:50:41;;;;;;;9.73;5.80;;;7.60;99.90;;;;;;6183215;23;20017;-91
2023/04/19 05:53:07;;;;;;;10.00;6.55;;;7.50;99.90;;;;;;6182403;23;20468;-91
2023/04/19 05:55:32;;;;;;;10.75;5.68;;;7.50;99.90;;;;;;6184009;23;20013;-88
2023/04/19 05:57:58;;;;;;;10.85;6.35;;;7.50;99.90;;;;;;6188123;23;20492;-92
2023/04/19 06:00:23;;;;;;;11.93;6.05;;;7.60;99.90;;;;;;6182415;23;20100;-89
2023/04/19 06:02:49;;;;;;;10.90;5.85;;;7.60;99.90;;;;;;6182949;23;20020;-92
2023/04/19 06:05:15;;;;;;;9.07;5.70;;;7.50;99.90;;;;;;6184210;23;20013;-92
2023/04/19 06:07:40;;;;;;;10.02;5.88;;;7.60;99.90;;;;;;6184433;23;20017;-92
2023/04/19 06:10:07;;;;;;;11.07;6.03;;;7.60;99.90;;;;;;6183980;23;20021;-91
2023/04/19 06:12:32;;;;;;;8.25;5.68;;;7.60;99.90;;;;;;6183226;23;20524;-93
2023/04/19 06:14:58;;;;;;;9.57;5.47;;;7.60;99.90;;;;;;6186928;23;20017;-93
2023/04/19 06:17:24;;;;;;;8.68;5.05;;;7.70;99.90;;;;;;6185048;23;20028;-91
2023/04/19 06:19:53;;;;;;;9.98;5.70;;;7.70;99.90;;;;;;6186059;23;20457;-94
2023/04/19 06:22:19;;;;;;;10.98;5.22;;;7.70;99.90;;;;;;6186046;23;20349;-94
2023/04/19 06:24:46;;;;;;;11.15;5.53;;;7.70;99.90;;;;;;6184729;23;20341;-94
2023/04/19 06:27:12;;;;;;;10.32;5.55;;;7.80;99.90;;;;;;6184783;23;20017;-94
2023/04/19 06:29:38;;;;;;;8.57;4.95;;;7.80;99.90;;;;;;6184976;23;20013;-94
2023/04/19 06:32:03;;;;;;;9.32;5.50;;;7.90;99.90;;;;;;6185173;23;20082;-94
2023/04/19 06:34:29;;;;;;;7.38;5.00;;;7.90;99.90;;;;;;6185278;23;20020;-93
2023/04/19 06:36:55;;;;;;;9.00;4.90;;;8.00;99.90;;;;;;6185404;23;20084;-91
2023/04/19 06:39:21;;;;;;;7.95;4.95;;;8.00;99.90;;;;;;6183819;23;20052;-90
2023/04/19 06:41:46;;;;;;;8.98;5.45;;;8.00;99.90;;;;;;6183629;23;20505;-91
2023/04/19 06:44:12;;;;;;;9.32;4.78;;;8.10;99.90;;;;;;6187146;23;20021;-91
2023/04/19 06:46:38;;;;;;;6.68;4.18;;;8.10;99.90;;;;;;6187036;23;20017;-92
2023/04/19 06:49:04;;;;;;;7.25;4.53;;;8.20;99.90;;;;;;6186947;23;20013;-91
2023/04/19 06:51:29;;;;;;;8.75;5.30;;;8.20;99.90;;;;;;6186587;23;20075;-92
2023/04/19 06:53:55;;;;;;;8.00;4.80;;;8.30;99.90;;;;;;6187088;23;20069;-91
2023/04/19 06:56:41;;;;;;;8.20;4.53;;;8.30;99.90;;;;;;6139121;23;1086415;-92
2023/04/19 06:59:06;;;;;;;7.97;4.72;;;8.40;99.90;;;;;;6188343;23;20025;-93
2023/04/19 07:01:32;;;;;;;9.63;4.45;;;8.50;99.90;;;;;;6186682;23;20028;-92
2023/04/19 07:03:58;;;;;;;7.38;4.55;;;8.50;99.90;;;;;;6188180;23;20450;-93
2023/04/19 07:06:23;;;;;;;6.50;4.25;;;8.60;99.90;;;;;;6189282;23;20126;-92
2023/04/19 07:08:49;;;;;;;10.27;4.32;;;8.60;99.90;;;;;;6186988;23;20546;-94
2023/04/19 07:11:14;;;;;;;7.88;4.45;;;8.70;99.90;;;;;;6188503;23;20069;-95
2023/04/19 07:13:40;;;;;;;7.70;3.53;;;8.80;99.90;;;;;;6186878;23;20009;-94
2023/04/19 07:16:06;;;;;;;7.45;3.90;;;8.80;99.90;;;;;;6188914;23;20034;-94
2023/04/19 07:18:32;;;;;;;7.13;3.55;;;8.90;99.90;;;;;;6187371;23;20071;-89
2023/04/19 07:20:58;;;;;;;7.25;3.75;;;9.00;99.90;;;;;;6183442;23;20021;-90
2023/04/19 07:23:23;;;;;;;8.55;3.88;;;9.00;99.90;;;;;;6184788;23;20009;-90
2023/04/19 07:25:49;;;;;;;7.97;4.00;;;9.10;99.90;;;;;;6184613;23;20021;-91
2023/04/19 07:28:14;;;;;;;6.55;3.67;;;9.20;99.90;;;;;;6185280;23;20024;-91
2023/04/19 07:30:40;;;;;;;6.95;3.90;;;9.30;99.90;;;;;;6184562;23;20071;-91
2023/04/19 07:33:07;;;;;;;6.45;3.85;;;9.40;99.90;;;;;;6185431;23;20052;-92
2023/04/19 07:35:34;;;;;;;6.50;3.78;;;9.50;99.90;;;;;;6185328;23;20434;-91
2023/04/19 07:38:00;;;;;;;5.90;3.50;;;9.50;99.90;;;;;;6184005;23;20045;-90
2023/04/19 07:40:26;;;;;;;6.63;3.35;;;9.60;99.90;;;;;;6187075;23;20028;-92
2023/04/19 07:42:54;;;;;;;5.68;2.97;;;9.70;99.90;;;;;;6184961;23;20350;-91
2023/04/19 07:45:20;;;;;;;6.15;2.78;;;9.70;99.90;;;;;;6186259;23;20059;-91
2023/04/19 07:47:45;;;;;;;6.38;2.80;;;9.80;99.90;;;;;;6186136;23;20049;-90
2023/04/19 07:50:11;;;;;;;6.93;3.25;;;9.90;99.90;;;;;;6186930;23;20023;-90
2023/04/19 07:52:37;;;;;;;5.85;3.10;;;10.00;99.90;;;;;;6185231;23;20337;-90
2023/04/19 07:55:03;;;;;;;7.32;3.08;;;10.10;99.90;;;;;;6184783;23;20024;-91
2023/04/19 07:57:28;;;;;;;6.65;2.88;;;10.20;99.90;;;;;;6185628;23;20052;-93
2023/04/19 07:59:56;;;;;;;6.10;2.80;;;10.30;99.90;;;;;;6187045;23;20013;-95
2023/04/19 08:02:24;;;;;;;6.43;3.10;;;10.30;99.90;;;;;;6185574;23;20023;-93
2023/04/19 08:04:50;;;;;;;6.78;3.42;;;10.50;99.90;;;;;;6185749;23;20013;-93
2023/04/19 08:07:16;;;;;;;5.85;3.20;;;10.60;99.90;;;;;;6187719;23;20386;-94
2023/04/19 08:09:42;;;;;;;7.97;3.72;;;10.60;99.90;;;;;;6187153;23;20017;-92
2023/04/19 08:12:07;;;;;;;6.15;3.10;;;10.80;99.90;;;;;;6185594;23;20055;-94
2023/04/19 08:14:33;;;;;;;6.40;3.15;;;10.80;99.90;;;;;;6185136;23;20017;-94
2023/04/19 08:16:59;;;;;;;5.72;2.95;;;10.90;99.90;;;;;;6186350;23;20017;-93
2023/04/19 08:19:24;;;;;;;8.07;3.45;;;11.00;99.90;;;;;;6187223;23;20071;-93
2023/04/19 08:21:50;;;;;;;6.00;2.67;;;11.00;99.90;;;;;;6184644;23;20020;-94
2023/04/19 08:24:15;;;;;;;5.00;3.00;;;11.10;99.70;;;;;;6186083;23;20013;-93
2023/04/19 08:26:41;;;;;;;6.18;2.85;;;11.20;99.60;;;;;;6186727;23;20434;-94
2023/04/19 08:29:07;;;;;;;5.50;2.78;;;11.30;99.60;;;;;;6185790;23;20017;-92
2023/04/19 08:31:32;;;;;;;6.93;2.90;;;11.30;99.10;;;;;;6187250;23;20013;-93
2023/04/19 08:33:59;;;;;;;6.75;3.47;;;11.30;98.50;;;;;;6184252;23;20223;-91
2023/04/19 08:36:26;;;;;;;5.07;2.80;;;11.40;98.90;;;;;;6184777;23;20017;-91
2023/04/19 08:38:52;;;;;;;5.30;2.90;;;11.50;99.30;;;;;;6186347;23;20023;-90
2023/04/19 08:41:19;;;;;;;6.28;2.90;;;11.60;99.10;;;;;;6184225;23;20016;-91
2023/04/19 08:43:47;;;;;;;5.85;2.75;;;11.60;98.60;;;;;;6184328;23;20009;-91
2023/04/19 08:46:13;;;;;;;5.32;2.60;;;11.70;97.50;;;;;;6184450;23;20012;-91
2023/04/19 08:48:39;;;;;;;5.30;2.67;;;11.80;97.90;;;;;;6183383;23;20021;-91
2023/04/19 08:51:07;;;;;;;5.22;2.80;;;11.90;98.30;;;;;;6184403;23;20017;-90
2023/04/19 08:53:33;;;;;;;6.55;3.08;;;11.90;98.70;;;;;;6184052;23;20484;-91
2023/04/19 08:55:59;;;;;;;6.88;3.05;;;12.00;98.70;;;;;;6185424;23;20023;-91
2023/04/19 08:58:25;;;;;;;4.68;2.70;;;12.10;99.10;;;;;;6185764;23;20092;-91
2023/04/19 09:00:51;;;;;;;4.57;2.40;;;12.10;99.20;;;;;;6184304;23;20571;-90
2023/04/19 09:03:16;;;;;;;4.88;2.70;;;12.20;98.50;;;;;;6183230;23;20354;-91
2023/04/19 09:05:42;;;;;;;6.90;2.80;;;12.30;98.80;;;;;;6183440;23;20327;-91
2023/04/19 09:08:26;;;;;;;5.50;2.50;;;12.40;98.90;;;;;;6184391;23;20020;-91
2023/04/19 09:10:56;;;;;;;6.65;2.63;;;12.50;98.90;;;;;;6183116;23;20186;-94
2023/04/19 09:13:22;;;;;;;5.75;2.28;;;12.50;98.40;;;;;;6186037;23;20453;-90
2023/04/19 09:15:48;;;;;;;5.70;2.35;;;12.60;97.90;;;;;;6185181;23;20039;-94
2023/04/19 09:18:14;;;;;;;5.78;2.25;;;12.60;97.90;;;;;;6186100;23;20509;-94
2023/04/19 09:20:44;;;;;;;6.70;2.20;;;12.70;97.90;;;;;;6185115;23;20020;-93
2023/04/19 09:23:12;;;;;;;4.38;2.17;;;12.80;97.20;;;;;;6184393;23;20330;-93
2023/04/19 09:25:38;;;;;;;3.78;1.92;;;12.90;97.00;;;;;;6186622;23;20017;-91
2023/04/19 09:28:11;;;;;;;5.53;2.50;;;12.90;96.80;;;;;;6186039;23;20430;-92
2023/04/19 09:30:37;;;;;;;4.57;2.15;;;13.00;97.10;;;;;;6183102;23;20512;-90
2023/04/19 09:33:03;;;;;;;6.35;2.58;;;13.00;97.20;;;;;;6183203;23;20009;-91
2023/04/19 09:35:43;;;;;;;4.45;2.40;;;13.10;97.60;;;;;;6184278;23;20103;-92
2023/04/19 09:38:10;;;;;;;6.78;2.53;;;13.20;97.40;;;;;;6184219;23;20020;-93
2023/04/19 09:40:37;;;;;;;3.92;1.98;;;13.30;97.80;;;;;;6184216;23;20449;-90
2023/04/19 09:43:02;;;;;;;5.85;2.30;;;13.30;97.80;;;;;;6187236;23;20013;-93
2023/04/19 09:45:42;;;;;;;5.93;2.30;;;13.50;98.00;;;;;;6183266;23;20019;-91
2023/04/19 09:48:09;;;;;;;5.20;2.20;;;13.50;97.40;;;;;;6184261;23;20017;-90
2023/04/19 09:50:49;;;;;;;4.65;2.00;;;13.60;97.60;;;;;;6185671;23;20442;-92
2023/04/19 09:53:15;;;;;;;5.70;1.90;;;13.70;97.70;;;;;;6184026;23;20021;-92
2023/04/19 09:55:43;;;;;;;4.95;2.45;;;13.70;97.60;;;;;;6184405;23;20334;-93
2023/04/19 09:58:08;;;;;;;5.00;2.10;;;13.80;97.80;;;;;;6184920;23;20322;-92
2023/04/19 10:00:34;;;;;;;3.63;2.00;;;13.90;97.90;;;;;;6185619;23;20052;-92
2023/04/19 10:03:00;;;;;;;5.53;1.77;;;13.90;97.90;;;;;;6186166;23;20017;-95
2023/04/19 10:05:26;;;;;;;4.97;2.25;;;14.00;97.50;;;;;;6186313;23;20064;-96
2023/04/19 10:07:54;;;;;;;4.65;1.85;;;14.10;97.70;;;;;;6187317;23;20476;-94
2023/04/19 10:10:21;;;;;;;6.50;1.83;;;14.20;97.10;;;;;;6185289;23;20059;-94
2023/04/19 10:12:50;;;;;;;3.70;1.70;;;14.20;95.70;;;;;;6184516;23;20026;-94
2023/04/19 10:15:16;;;;;;;5.05;1.85;;;14.30;96.30;;;;;;6185277;23;20023;-94
2023/04/19 10:17:42;;;;;;;3.88;1.63;;;14.30;96.30;;;;;;6186785;23;20056;-93
2023/04/19 10:20:22;;;;;;;5.20;1.85;;;14.40;95.30;;;;;;6186499;23;20009;-93
2023/04/19 10:22:48;;;;;;;3.55;1.80;;;14.40;95.90;;;;;;6204998;23;20021;-92
2023/04/19 10:25:15;;;;;;;3.53;1.67;;;14.50;96.30;;;;;;6185742;23;20024;-93
2023/04/19 10:27:44;;;;;;;3.83;1.85;;;14.60;96.40;;;;;;6186070;23;20016;-92
2023/04/19 10:30:26;;;;;;;4.82;1.90;;;14.70;96.90;;;;;;6186472;23;20323;-93
2023/04/19 10:33:22;;;;;;;5.80;1.60;;;14.80;96.00;;;;;;6186917;23;20770;-93
2023/04/19 10:35:49;;;;;;;2.97;1.33;;;14.80;95.90;;;;;;6186206;23;20071;-93
2023/04/19 10:38:18;;;;;;;3.20;1.60;;;14.80;94.90;;;;;;6186689;23;20013;-93
2023/04/19 10:40:59;;;;;;;5.40;1.75;;;14.90;95.60;;;;;;6182446;23;20477;-91
2023/04/19 10:43:35;;;;;;;5.43;1.45;;;14.90;96.10;;;;;;6186375;23;20473;-95
2023/04/19 10:46:08;;;;;;;3.08;1.50;;;15.00;95.60;;;;;;6189181;23;20082;-94
2023/04/19 10:48:39;;;;;;;5.38;1.73;;;15.10;95.10;;;;;;6186685;23;20096;-94
2023/04/19 10:51:15;;;;;;;4.72;1.30;;;15.10;95.10;;;;;;6188477;23;20013;-94
2023/04/19 10:53:52;;;;;;;2.85;1.27;;;15.20;94.50;;;;;;6186616;23;20017;-94
2023/04/19 10:56:40;;;;;;;4.93;1.60;;;15.20;94.70;;;;;;6187626;23;20017;-92
2023/04/19 10:59:11;;;;;;;3.88;1.45;;;15.30;94.30;;;;;;6129603;23;20017;-94
2023/04/19 11:01:44;;;;;;;3.22;1.20;;;15.40;95.20;;;;;;6185736;23;20017;-93
2023/04/19 11:04:11;;;;;;;3.10;1.50;;;15.40;93.90;;;;;;6184600;23;20017;-88
2023/04/19 11:06:56;;;;;;;3.80;1.30;;;15.50;94.10;;;;;;6184709;23;20064;-89
2023/04/19 11:09:37;;;;;;;3.80;1.30;;;15.50;94.50;;;;;;6185605;23;20013;-89
2023/04/19 11:12:03;;;;;;;3.40;1.35;;;15.60;94.80;;;;;;6186876;23;20028;-89
2023/04/19 11:14:53;;;;;;;3.33;1.52;;;15.70;94.70;;;;;;6184939;23;20013;-90
2023/04/19 11:17:30;;;;;;;4.53;1.50;;;15.70;94.00;;;;;;6185848;23;20531;-90
2023/04/19 11:19:57;;;;;;;3.40;1.25;;;15.70;92.60;;;;;;6184796;23;20036;-88
2023/04/19 11:22:32;;;;;;;3.42;1.20;;;15.80;92.00;;;;;;6185121;23;20100;-89
2023/04/19 11:25:11;;;;;;;4.85;1.30;;;15.80;92.50;;;;;;6185113;23;20472;-88
2023/04/19 11:27:38;;;;;;;4.57;1.50;;;15.80;92.20;;;;;;6184408;23;20053;-90
2023/04/19 11:30:10;;;;;;;4.30;1.38;;;15.90;93.30;;;;;;6186080;23;20024;-89
2023/04/19 11:32:37;;;;;;;2.80;1.30;;;15.90;94.00;;;;;;6184738;23;20013;-89
2023/04/19 11:35:09;;;;;;;3.50;1.35;;;16.00;94.20;;;;;;6184913;23;20017;-88
2023/04/19 11:37:36;;;;;;;3.80;1.30;;;16.00;94.40;;;;;;6183844;23;20021;-88
2023/04/19 11:40:03;;;;;;;3.72;1.30;;;16.10;92.90;;;;;;6184855;23;20088;-88
2023/04/19 11:42:29;;;;;;;4.10;1.25;;;16.10;93.40;;;;;;6185290;23;20013;-89
2023/04/19 11:44:57;;;;;;;3.28;1.38;;;16.10;93.00;;;;;;6185535;23;20084;-88
2023/04/19 11:47:22;;;;;;;3.75;1.55;;;16.10;93.70;;;;;;6186690;23;20020;-88
2023/04/19 11:49:48;;;;;;;4.05;1.70;;;16.20;93.20;;;;;;6184632;23;20041;-89
2023/04/19 11:52:21;;;;;;;5.60;1.75;;;16.20;93.40;;;;;;6185749;23;20017;-89
2023/04/19 11:54:47;;;;;;;5.40;1.40;;;16.30;93.90;;;;;;6184409;23;20024;-89
2023/04/19 11:57:12;;;;;;;3.05;1.45;;;16.30;94.00;;;;;;6184886;23;20515;-89
2023/04/19 11:59:38;;;;;;;5.10;1.80;;;16.30;94.00;;;;;;6183918;23;20024;-89
2023/04/19 12:02:11;;;;;;;5.18;1.67;;;16.40;93.70;;;;;;6185403;23;20013;-89
2023/04/19 12:04:38;;;;;;;4.30;1.48;;;16.40;93.50;;;;;;6184457;23;20031;-88
2023/04/19 12:07:05;;;;;;;4.95;1.73;;;16.40;93.70;;;;;;6186016;23;20024;-89
2023/04/19 12:09:35;;;;;;;5.55;1.80;;;16.50;94.30;;;;;;6185033;23;20024;-88
2023/04/19 12:12:01;;;;;;;4.22;1.67;;;16.50;94.30;;;;;;6185743;23;20075;-89
2023/04/19 12:14:29;;;;;;;3.28;1.88;;;16.60;94.20;;;;;;6185963;23;20465;-88
2023/04/19 12:17:08;;;;;;;6.88;1.80;;;16.60;94.30;;;;;;6186052;23;20017;-89
2023/04/19 12:19:36;;;;;;;2.85;1.80;;;16.60;92.30;;;;;;6185240;23;20048;-89
2023/04/19 12:22:11;;;;;;;3.78;1.83;;;16.70;93.00;;;;;;6184430;23;20024;-90
2023/04/19 12:24:38;;;;;;;6.88;1.92;;;16.70;93.30;;;;;;6185537;23;20017;-90
2023/04/19 12:27:03;;;;;;;5.28;2.03;;;16.70;92.90;;;;;;6183319;23;20020;-91
2023/04/19 12:29:29;;;;;;;4.75;2.30;;;16.80;92.70;;;;;;6185234;23;20036;-92
2023/04/19 12:31:55;;;;;;;4.90;1.90;;;16.80;92.30;;;;;;6184920;23;20373;-91
2023/04/19 12:34:21;;;;;;;5.53;2.33;;;16.80;93.20;;;;;;6179172;23;20025;-91
2023/04/19 12:36:47;;;;;;;4.93;2.30;;;16.80;92.80;;;;;;6182638;23;20056;-92
2023/04/19 12:39:23;;;;;;;4.57;2.25;;;16.80;92.30;;;;;;6185164;23;20044;-92
2023/04/19 12:41:49;;;;;;;5.10;2.20;;;16.80;92.20;;;;;;6181560;23;20017;-92
2023/04/19 12:44:15;;;;;;;4.28;2.13;;;16.80;92.20;;;;;;6182698;23;20013;-92
2023/04/19 12:46:41;;;;;;;5.20;2.30;;;16.80;91.80;;;;;;6182117;23;20021;-92